sensor_id;sensor_type;location;lat;lon;timestamp;P1;durP1;ratioP1;P2;durP2;ratioP2
54171;SDS011;40076;52.354;4.970;2023-12-04T00:00:24;26.13;;;13.43;;
54171;SDS011;40076;52.354;4.970;2023-12-04T00:02:50;30.02;;;15.20;;
54171;SDS011;40076;52.354;4.970;2023-12-04T00:05:15;30.40;;;14.93;;
54171;SDS011;40076;52.354;4.970;2023-12-04T00:07:40;32.55;;;14.73;;
54171;SDS011;40076;52.354;4.970;2023-12-04T00:10:06;28.70;;;14.20;;
54171;SDS011;40076;52.354;4.970;2023-12-04T00:12:31;29.20;;;15.00;;
54171;SDS011;40076;52.354;4.970;2023-12-04T00:14:56;29.73;;;13.98;;
54171;SDS011;40076;52.354;4.970;2023-12-04T00:17:22;28.27;;;14.82;;
54171;SDS011;40076;52.354;4.970;2023-12-04T00:19:47;25.63;;;13.25;;
54171;SDS011;40076;52.354;4.970;2023-12-04T00:22:12;27.63;;;13.85;;
54171;SDS011;40076;52.354;4.970;2023-12-04T00:24:38;26.20;;;13.15;;
54171;SDS011;40076;52.354;4.970;2023-12-04T00:27:03;29.13;;;15.00;;
54171;SDS011;40076;52.354;4.970;2023-12-04T00:29:28;28.75;;;14.35;;
54171;SDS011;40076;52.354;4.970;2023-12-04T00:31:54;27.90;;;14.15;;
54171;SDS011;40076;52.354;4.970;2023-12-04T00:34:19;28.20;;;13.25;;
54171;SDS011;40076;52.354;4.970;2023-12-04T00:36:44;27.50;;;13.52;;
54171;SDS011;40076;52.354;4.970;2023-12-04T00:39:10;25.42;;;13.15;;
54171;SDS011;40076;52.354;4.970;2023-12-04T00:41:35;26.40;;;13.50;;
54171;SDS011;40076;52.354;4.970;2023-12-04T00:44:00;28.58;;;13.48;;
54171;SDS011;40076;52.354;4.970;2023-12-04T00:46:25;23.58;;;12.88;;
54171;SDS011;40076;52.354;4.970;2023-12-04T00:48:51;27.15;;;13.30;;
54171;SDS011;40076;52.354;4.970;2023-12-04T00:51:16;25.25;;;13.02;;
54171;SDS011;40076;52.354;4.970;2023-12-04T00:53:41;22.15;;;12.80;;
54171;SDS011;40076;52.354;4.970;2023-12-04T00:56:07;23.83;;;12.18;;
54171;SDS011;40076;52.354;4.970;2023-12-04T00:58:33;21.60;;;12.00;;
54171;SDS011;40076;52.354;4.970;2023-12-04T01:00:58;25.35;;;12.80;;
54171;SDS011;40076;52.354;4.970;2023-12-04T01:03:24;24.08;;;13.50;;
54171;SDS011;40076;52.354;4.970;2023-12-04T01:05:51;23.45;;;11.80;;
54171;SDS011;40076;52.354;4.970;2023-12-04T01:08:16;24.40;;;13.82;;
54171;SDS011;40076;52.354;4.970;2023-12-04T01:10:42;24.88;;;13.15;;
54171;SDS011;40076;52.354;4.970;2023-12-04T01:13:08;26.02;;;13.48;;
54171;SDS011;40076;52.354;4.970;2023-12-04T01:15:33;26.98;;;13.05;;
54171;SDS011;40076;52.354;4.970;2023-12-04T01:17:58;25.40;;;13.35;;
54171;SDS011;40076;52.354;4.970;2023-12-04T01:20:25;24.77;;;13.05;;
54171;SDS011;40076;52.354;4.970;2023-12-04T01:22:50;25.52;;;12.43;;
54171;SDS011;40076;52.354;4.970;2023-12-04T01:25:16;25.25;;;13.48;;
54171;SDS011;40076;52.354;4.970;2023-12-04T01:27:41;27.95;;;14.02;;
54171;SDS011;40076;52.354;4.970;2023-12-04T01:30:06;28.92;;;14.57;;
54171;SDS011;40076;52.354;4.970;2023-12-04T01:32:33;25.15;;;13.18;;
54171;SDS011;40076;52.354;4.970;2023-12-04T01:34:59;28.27;;;14.73;;
54171;SDS011;40076;52.354;4.970;2023-12-04T01:37:24;25.08;;;13.02;;
54171;SDS011;40076;52.354;4.970;2023-12-04T01:39:50;31.13;;;15.50;;
54171;SDS011;40076;52.354;4.970;2023-12-04T01:42:15;25.77;;;13.48;;
54171;SDS011;40076;52.354;4.970;2023-12-04T01:44:40;27.60;;;13.93;;
54171;SDS011;40076;52.354;4.970;2023-12-04T01:47:06;25.55;;;13.70;;
54171;SDS011;40076;52.354;4.970;2023-12-04T01:49:32;28.80;;;14.00;;
54171;SDS011;40076;52.354;4.970;2023-12-04T01:51:57;27.70;;;13.77;;
54171;SDS011;40076;52.354;4.970;2023-12-04T01:54:23;30.95;;;14.88;;
54171;SDS011;40076;52.354;4.970;2023-12-04T01:56:49;26.85;;;14.35;;
54171;SDS011;40076;52.354;4.970;2023-12-04T01:59:14;31.27;;;14.48;;
54171;SDS011;40076;52.354;4.970;2023-12-04T02:01:40;28.67;;;13.68;;
54171;SDS011;40076;52.354;4.970;2023-12-04T02:04:07;25.52;;;14.13;;
54171;SDS011;40076;52.354;4.970;2023-12-04T02:06:32;28.15;;;14.55;;
54171;SDS011;40076;52.354;4.970;2023-12-04T02:08:58;28.60;;;14.63;;
54171;SDS011;40076;52.354;4.970;2023-12-04T02:11:23;27.73;;;14.80;;
54171;SDS011;40076;52.354;4.970;2023-12-04T02:13:49;27.50;;;14.73;;
54171;SDS011;40076;52.354;4.970;2023-12-04T02:16:15;29.60;;;15.45;;
54171;SDS011;40076;52.354;4.970;2023-12-04T02:18:43;28.40;;;14.48;;
54171;SDS011;40076;52.354;4.970;2023-12-04T02:21:09;27.77;;;14.68;;
54171;SDS011;40076;52.354;4.970;2023-12-04T02:23:34;28.45;;;14.43;;
54171;SDS011;40076;52.354;4.970;2023-12-04T02:26:01;27.10;;;14.38;;
54171;SDS011;40076;52.354;4.970;2023-12-04T02:28:33;24.73;;;11.10;;
54171;SDS011;40076;52.354;4.970;2023-12-04T02:31:00;30.15;;;14.30;;
54171;SDS011;40076;52.354;4.970;2023-12-04T02:33:29;26.65;;;14.30;;
54171;SDS011;40076;52.354;4.970;2023-12-04T02:35:55;27.23;;;13.73;;
54171;SDS011;40076;52.354;4.970;2023-12-04T02:38:22;29.23;;;14.25;;
54171;SDS011;40076;52.354;4.970;2023-12-04T02:40:48;27.55;;;14.25;;
54171;SDS011;40076;52.354;4.970;2023-12-04T02:43:13;29.00;;;14.48;;
54171;SDS011;40076;52.354;4.970;2023-12-04T02:45:39;27.52;;;14.02;;
54171;SDS011;40076;52.354;4.970;2023-12-04T02:48:04;29.85;;;14.68;;
54171;SDS011;40076;52.354;4.970;2023-12-04T02:50:30;27.00;;;14.77;;
54171;SDS011;40076;52.354;4.970;2023-12-04T02:52:55;26.95;;;14.20;;
54171;SDS011;40076;52.354;4.970;2023-12-04T02:55:20;26.38;;;14.18;;
54171;SDS011;40076;52.354;4.970;2023-12-04T02:57:45;28.77;;;14.75;;
54171;SDS011;40076;52.354;4.970;2023-12-04T03:00:11;26.30;;;13.93;;
54171;SDS011;40076;52.354;4.970;2023-12-04T03:02:36;27.23;;;14.13;;
54171;SDS011;40076;52.354;4.970;2023-12-04T03:05:02;28.25;;;13.88;;
54171;SDS011;40076;52.354;4.970;2023-12-04T03:07:27;27.27;;;13.98;;
54171;SDS011;40076;52.354;4.970;2023-12-04T03:09:52;26.77;;;14.02;;
54171;SDS011;40076;52.354;4.970;2023-12-04T03:12:18;27.00;;;13.88;;
54171;SDS011;40076;52.354;4.970;2023-12-04T03:14:43;29.70;;;13.68;;
54171;SDS011;40076;52.354;4.970;2023-12-04T03:17:08;24.92;;;13.75;;
54171;SDS011;40076;52.354;4.970;2023-12-04T03:19:34;24.80;;;14.13;;
54171;SDS011;40076;52.354;4.970;2023-12-04T03:22:00;28.67;;;14.07;;
54171;SDS011;40076;52.354;4.970;2023-12-04T03:24:26;28.75;;;13.65;;
54171;SDS011;40076;52.354;4.970;2023-12-04T03:26:51;26.98;;;13.88;;
54171;SDS011;40076;52.354;4.970;2023-12-04T03:29:16;24.65;;;12.73;;
54171;SDS011;40076;52.354;4.970;2023-12-04T03:31:41;28.05;;;14.18;;
54171;SDS011;40076;52.354;4.970;2023-12-04T03:34:07;28.23;;;14.27;;
54171;SDS011;40076;52.354;4.970;2023-12-04T03:36:32;26.35;;;13.55;;
54171;SDS011;40076;52.354;4.970;2023-12-04T03:38:57;27.08;;;13.73;;
54171;SDS011;40076;52.354;4.970;2023-12-04T03:41:22;27.85;;;13.65;;
54171;SDS011;40076;52.354;4.970;2023-12-04T03:43:48;23.58;;;12.57;;
54171;SDS011;40076;52.354;4.970;2023-12-04T03:46:13;26.13;;;14.27;;
54171;SDS011;40076;52.354;4.970;2023-12-04T03:48:38;28.58;;;14.80;;
54171;SDS011;40076;52.354;4.970;2023-12-04T03:51:04;26.10;;;12.90;;
54171;SDS011;40076;52.354;4.970;2023-12-04T03:53:30;27.38;;;14.93;;
54171;SDS011;40076;52.354;4.970;2023-12-04T03:55:57;25.40;;;13.00;;
54171;SDS011;40076;52.354;4.970;2023-12-04T03:58:23;26.20;;;13.90;;
54171;SDS011;40076;52.354;4.970;2023-12-04T04:00:48;29.63;;;14.48;;
54171;SDS011;40076;52.354;4.970;2023-12-04T04:03:14;27.15;;;14.48;;
54171;SDS011;40076;52.354;4.970;2023-12-04T04:05:40;21.38;;;11.80;;
54171;SDS011;40076;52.354;4.970;2023-12-04T04:08:05;23.80;;;13.95;;
54171;SDS011;40076;52.354;4.970;2023-12-04T04:10:32;24.10;;;13.68;;
54171;SDS011;40076;52.354;4.970;2023-12-04T04:12:57;25.30;;;13.55;;
54171;SDS011;40076;52.354;4.970;2023-12-04T04:15:23;24.83;;;13.68;;
54171;SDS011;40076;52.354;4.970;2023-12-04T04:17:48;24.90;;;13.05;;
54171;SDS011;40076;52.354;4.970;2023-12-04T04:20:13;23.17;;;12.65;;
54171;SDS011;40076;52.354;4.970;2023-12-04T04:22:39;27.45;;;12.88;;
54171;SDS011;40076;52.354;4.970;2023-12-04T04:25:06;25.63;;;13.45;;
54171;SDS011;40076;52.354;4.970;2023-12-04T04:27:32;23.48;;;12.45;;
54171;SDS011;40076;52.354;4.970;2023-12-04T04:29:57;24.70;;;12.60;;
54171;SDS011;40076;52.354;4.970;2023-12-04T04:32:22;26.73;;;13.25;;
54171;SDS011;40076;52.354;4.970;2023-12-04T04:34:47;24.60;;;12.32;;
54171;SDS011;40076;52.354;4.970;2023-12-04T04:37:13;21.83;;;11.65;;
54171;SDS011;40076;52.354;4.970;2023-12-04T04:39:39;24.27;;;11.80;;
54171;SDS011;40076;52.354;4.970;2023-12-04T04:42:04;22.65;;;12.10;;
54171;SDS011;40076;52.354;4.970;2023-12-04T04:44:30;21.83;;;12.40;;
54171;SDS011;40076;52.354;4.970;2023-12-04T04:46:55;24.08;;;13.10;;
54171;SDS011;40076;52.354;4.970;2023-12-04T04:49:20;22.65;;;12.00;;
54171;SDS011;40076;52.354;4.970;2023-12-04T04:51:46;23.50;;;12.73;;
54171;SDS011;40076;52.354;4.970;2023-12-04T04:54:11;20.38;;;12.10;;
54171;SDS011;40076;52.354;4.970;2023-12-04T04:56:36;25.00;;;13.25;;
54171;SDS011;40076;52.354;4.970;2023-12-04T04:59:01;22.67;;;12.52;;
54171;SDS011;40076;52.354;4.970;2023-12-04T05:01:27;23.65;;;12.52;;
54171;SDS011;40076;52.354;4.970;2023-12-04T05:03:52;19.55;;;11.30;;
54171;SDS011;40076;52.354;4.970;2023-12-04T05:06:17;24.83;;;12.27;;
54171;SDS011;40076;52.354;4.970;2023-12-04T05:08:43;24.00;;;13.40;;
54171;SDS011;40076;52.354;4.970;2023-12-04T05:11:08;22.92;;;12.95;;
54171;SDS011;40076;52.354;4.970;2023-12-04T05:13:33;22.77;;;11.77;;
54171;SDS011;40076;52.354;4.970;2023-12-04T05:15:58;19.25;;;10.88;;
54171;SDS011;40076;52.354;4.970;2023-12-04T05:18:24;20.95;;;11.52;;
54171;SDS011;40076;52.354;4.970;2023-12-04T05:20:49;22.98;;;12.23;;
54171;SDS011;40076;52.354;4.970;2023-12-04T05:23:14;21.70;;;11.13;;
54171;SDS011;40076;52.354;4.970;2023-12-04T05:25:40;20.45;;;11.18;;
54171;SDS011;40076;52.354;4.970;2023-12-04T05:28:05;22.23;;;12.23;;
54171;SDS011;40076;52.354;4.970;2023-12-04T05:30:30;19.38;;;11.40;;
54171;SDS011;40076;52.354;4.970;2023-12-04T05:32:56;21.40;;;11.45;;
54171;SDS011;40076;52.354;4.970;2023-12-04T05:35:21;23.27;;;11.25;;
54171;SDS011;40076;52.354;4.970;2023-12-04T05:37:47;20.35;;;11.05;;
54171;SDS011;40076;52.354;4.970;2023-12-04T05:40:13;20.25;;;10.85;;
54171;SDS011;40076;52.354;4.970;2023-12-04T05:42:38;21.13;;;12.55;;
54171;SDS011;40076;52.354;4.970;2023-12-04T05:45:03;19.90;;;11.18;;
54171;SDS011;40076;52.354;4.970;2023-12-04T05:47:29;20.98;;;10.77;;
54171;SDS011;40076;52.354;4.970;2023-12-04T05:49:54;18.42;;;10.55;;
54171;SDS011;40076;52.354;4.970;2023-12-04T05:52:20;19.05;;;10.50;;
54171;SDS011;40076;52.354;4.970;2023-12-04T05:54:45;21.83;;;11.20;;
54171;SDS011;40076;52.354;4.970;2023-12-04T05:57:11;19.35;;;10.73;;
54171;SDS011;40076;52.354;4.970;2023-12-04T05:59:36;18.98;;;10.73;;
54171;SDS011;40076;52.354;4.970;2023-12-04T06:02:01;21.45;;;10.93;;
54171;SDS011;40076;52.354;4.970;2023-12-04T06:04:27;19.23;;;11.15;;
54171;SDS011;40076;52.354;4.970;2023-12-04T06:06:52;21.15;;;10.98;;
54171;SDS011;40076;52.354;4.970;2023-12-04T06:09:17;21.67;;;10.82;;
54171;SDS011;40076;52.354;4.970;2023-12-04T06:11:43;18.88;;;10.50;;
54171;SDS011;40076;52.354;4.970;2023-12-04T06:14:08;19.40;;;10.50;;
54171;SDS011;40076;52.354;4.970;2023-12-04T06:16:33;18.15;;;10.27;;
54171;SDS011;40076;52.354;4.970;2023-12-04T06:18:59;19.30;;;10.27;;
54171;SDS011;40076;52.354;4.970;2023-12-04T06:21:24;19.35;;;11.07;;
54171;SDS011;40076;52.354;4.970;2023-12-04T06:23:49;18.70;;;11.18;;
54171;SDS011;40076;52.354;4.970;2023-12-04T06:26:15;19.30;;;10.95;;
54171;SDS011;40076;52.354;4.970;2023-12-04T06:28:42;20.92;;;11.07;;
54171;SDS011;40076;52.354;4.970;2023-12-04T06:31:08;20.67;;;11.30;;
54171;SDS011;40076;52.354;4.970;2023-12-04T06:33:34;17.63;;;10.52;;
54171;SDS011;40076;52.354;4.970;2023-12-04T06:36:00;17.85;;;10.55;;
54171;SDS011;40076;52.354;4.970;2023-12-04T06:38:26;16.85;;;10.23;;
54171;SDS011;40076;52.354;4.970;2023-12-04T06:40:52;19.63;;;10.70;;
54171;SDS011;40076;52.354;4.970;2023-12-04T06:43:17;19.63;;;11.10;;
54171;SDS011;40076;52.354;4.970;2023-12-04T06:45:44;17.95;;;9.80;;
54171;SDS011;40076;52.354;4.970;2023-12-04T06:48:10;18.50;;;11.20;;
54171;SDS011;40076;52.354;4.970;2023-12-04T06:50:38;18.50;;;10.20;;
54171;SDS011;40076;52.354;4.970;2023-12-04T06:53:05;17.45;;;10.57;;
54171;SDS011;40076;52.354;4.970;2023-12-04T06:55:30;16.88;;;10.30;;
54171;SDS011;40076;52.354;4.970;2023-12-04T06:57:55;18.60;;;10.20;;
54171;SDS011;40076;52.354;4.970;2023-12-04T07:00:20;16.17;;;10.05;;
54171;SDS011;40076;52.354;4.970;2023-12-04T07:02:46;17.30;;;10.05;;
54171;SDS011;40076;52.354;4.970;2023-12-04T07:05:11;15.98;;;9.85;;
54171;SDS011;40076;52.354;4.970;2023-12-04T07:07:36;17.23;;;10.35;;
54171;SDS011;40076;52.354;4.970;2023-12-04T07:10:02;18.80;;;10.15;;
54171;SDS011;40076;52.354;4.970;2023-12-04T07:12:27;17.23;;;9.90;;
54171;SDS011;40076;52.354;4.970;2023-12-04T07:14:52;15.32;;;9.40;;
54171;SDS011;40076;52.354;4.970;2023-12-04T07:17:18;15.70;;;9.65;;
54171;SDS011;40076;52.354;4.970;2023-12-04T07:19:43;16.60;;;10.15;;
54171;SDS011;40076;52.354;4.970;2023-12-04T07:22:09;16.50;;;9.80;;
54171;SDS011;40076;52.354;4.970;2023-12-04T07:24:35;17.73;;;10.10;;
54171;SDS011;40076;52.354;4.970;2023-12-04T07:27:00;17.08;;;10.60;;
54171;SDS011;40076;52.354;4.970;2023-12-04T07:29:25;16.13;;;9.52;;
54171;SDS011;40076;52.354;4.970;2023-12-04T07:31:51;15.68;;;8.98;;
54171;SDS011;40076;52.354;4.970;2023-12-04T07:34:16;17.83;;;10.57;;
54171;SDS011;40076;52.354;4.970;2023-12-04T07:36:41;19.83;;;10.18;;
54171;SDS011;40076;52.354;4.970;2023-12-04T07:39:09;17.20;;;9.13;;
54171;SDS011;40076;52.354;4.970;2023-12-04T07:41:34;16.95;;;9.88;;
54171;SDS011;40076;52.354;4.970;2023-12-04T07:43:59;16.27;;;9.20;;
54171;SDS011;40076;52.354;4.970;2023-12-04T07:46:25;16.92;;;9.70;;
54171;SDS011;40076;52.354;4.970;2023-12-04T07:48:50;16.27;;;9.65;;
54171;SDS011;40076;52.354;4.970;2023-12-04T07:51:16;15.00;;;9.18;;
54171;SDS011;40076;52.354;4.970;2023-12-04T07:53:41;15.60;;;9.30;;
54171;SDS011;40076;52.354;4.970;2023-12-04T07:56:07;16.85;;;9.93;;
54171;SDS011;40076;52.354;4.970;2023-12-04T07:58:33;13.63;;;8.48;;
54171;SDS011;40076;52.354;4.970;2023-12-04T08:00:58;15.63;;;9.07;;
54171;SDS011;40076;52.354;4.970;2023-12-04T08:03:24;16.98;;;9.57;;
54171;SDS011;40076;52.354;4.970;2023-12-04T08:05:50;14.23;;;8.60;;
54171;SDS011;40076;52.354;4.970;2023-12-04T08:08:16;14.02;;;8.55;;
54171;SDS011;40076;52.354;4.970;2023-12-04T08:10:44;16.00;;;9.00;;
54171;SDS011;40076;52.354;4.970;2023-12-04T08:13:09;12.38;;;7.95;;
54171;SDS011;40076;52.354;4.970;2023-12-04T08:15:35;16.88;;;8.98;;
54171;SDS011;40076;52.354;4.970;2023-12-04T08:18:00;13.88;;;8.55;;
54171;SDS011;40076;52.354;4.970;2023-12-04T08:20:26;14.90;;;8.38;;
54171;SDS011;40076;52.354;4.970;2023-12-04T08:22:51;12.02;;;7.32;;
54171;SDS011;40076;52.354;4.970;2023-12-04T08:25:17;14.25;;;8.75;;
54171;SDS011;40076;52.354;4.970;2023-12-04T08:27:42;12.27;;;8.20;;
54171;SDS011;40076;52.354;4.970;2023-12-04T08:30:14;12.82;;;7.63;;
54171;SDS011;40076;52.354;4.970;2023-12-04T08:32:39;14.98;;;8.90;;
54171;SDS011;40076;52.354;4.970;2023-12-04T08:35:07;12.75;;;7.68;;
54171;SDS011;40076;52.354;4.970;2023-12-04T08:37:42;14.05;;;8.07;;
54171;SDS011;40076;52.354;4.970;2023-12-04T08:40:07;12.93;;;7.80;;
54171;SDS011;40076;52.354;4.970;2023-12-04T08:42:33;13.40;;;7.70;;
54171;SDS011;40076;52.354;4.970;2023-12-04T08:44:59;11.40;;;6.95;;
54171;SDS011;40076;52.354;4.970;2023-12-04T08:47:24;11.73;;;6.95;;
54171;SDS011;40076;52.354;4.970;2023-12-04T08:49:50;11.60;;;7.88;;
54171;SDS011;40076;52.354;4.970;2023-12-04T08:52:15;13.50;;;7.57;;
54171;SDS011;40076;52.354;4.970;2023-12-04T08:54:40;12.18;;;7.18;;
54171;SDS011;40076;52.354;4.970;2023-12-04T08:57:06;11.20;;;6.63;;
54171;SDS011;40076;52.354;4.970;2023-12-04T08:59:32;13.95;;;7.10;;
54171;SDS011;40076;52.354;4.970;2023-12-04T09:01:57;13.98;;;8.07;;
54171;SDS011;40076;52.354;4.970;2023-12-04T09:04:22;11.50;;;7.90;;
54171;SDS011;40076;52.354;4.970;2023-12-04T09:06:47;10.85;;;6.90;;
54171;SDS011;40076;52.354;4.970;2023-12-04T09:09:13;11.07;;;7.50;;
54171;SDS011;40076;52.354;4.970;2023-12-04T09:11:41;11.23;;;7.13;;
54171;SDS011;40076;52.354;4.970;2023-12-04T09:14:07;12.05;;;7.20;;
54171;SDS011;40076;52.354;4.970;2023-12-04T09:16:32;10.65;;;6.68;;
54171;SDS011;40076;52.354;4.970;2023-12-04T09:18:58;11.48;;;6.88;;
54171;SDS011;40076;52.354;4.970;2023-12-04T09:21:23;9.43;;;5.85;;
54171;SDS011;40076;52.354;4.970;2023-12-04T09:23:49;11.15;;;6.45;;
54171;SDS011;40076;52.354;4.970;2023-12-04T09:26:15;9.98;;;6.40;;
54171;SDS011;40076;52.354;4.970;2023-12-04T09:28:41;9.43;;;6.15;;
54171;SDS011;40076;52.354;4.970;2023-12-04T09:31:08;10.45;;;6.00;;
54171;SDS011;40076;52.354;4.970;2023-12-04T09:33:34;10.98;;;6.13;;
54171;SDS011;40076;52.354;4.970;2023-12-04T09:35:59;9.43;;;5.85;;
54171;SDS011;40076;52.354;4.970;2023-12-04T09:38:24;11.02;;;6.15;;
54171;SDS011;40076;52.354;4.970;2023-12-04T09:40:49;10.43;;;6.25;;
54171;SDS011;40076;52.354;4.970;2023-12-04T09:43:17;9.25;;;5.80;;
54171;SDS011;40076;52.354;4.970;2023-12-04T09:45:43;10.32;;;5.35;;
54171;SDS011;40076;52.354;4.970;2023-12-04T09:48:09;8.80;;;5.80;;
54171;SDS011;40076;52.354;4.970;2023-12-04T09:50:35;9.48;;;6.20;;
54171;SDS011;40076;52.354;4.970;2023-12-04T09:53:01;9.73;;;5.70;;
54171;SDS011;40076;52.354;4.970;2023-12-04T09:55:27;8.30;;;5.40;;
54171;SDS011;40076;52.354;4.970;2023-12-04T09:57:52;9.10;;;5.60;;
54171;SDS011;40076;52.354;4.970;2023-12-04T10:00:19;12.05;;;5.60;;
54171;SDS011;40076;52.354;4.970;2023-12-04T10:02:46;10.15;;;5.97;;
54171;SDS011;40076;52.354;4.970;2023-12-04T10:05:12;9.38;;;5.85;;
54171;SDS011;40076;52.354;4.970;2023-12-04T10:07:38;9.50;;;5.50;;
54171;SDS011;40076;52.354;4.970;2023-12-04T10:10:04;10.85;;;6.10;;
54171;SDS011;40076;52.354;4.970;2023-12-04T10:12:31;8.25;;;5.65;;
54171;SDS011;40076;52.354;4.970;2023-12-04T10:15:11;11.75;;;5.97;;
54171;SDS011;40076;52.354;4.970;2023-12-04T10:17:38;10.85;;;5.88;;
54171;SDS011;40076;52.354;4.970;2023-12-04T10:20:11;10.07;;;5.82;;
54171;SDS011;40076;52.354;4.970;2023-12-04T10:22:52;8.77;;;5.53;;
54171;SDS011;40076;52.354;4.970;2023-12-04T10:25:19;10.38;;;6.35;;
54171;SDS011;40076;52.354;4.970;2023-12-04T10:27:46;9.00;;;5.10;;
54171;SDS011;40076;52.354;4.970;2023-12-04T10:30:32;9.55;;;5.57;;
54171;SDS011;40076;52.354;4.970;2023-12-04T10:32:58;8.15;;;5.85;;
54171;SDS011;40076;52.354;4.970;2023-12-04T10:35:28;9.20;;;5.43;;
54171;SDS011;40076;52.354;4.970;2023-12-04T10:37:57;9.75;;;5.35;;
54171;SDS011;40076;52.354;4.970;2023-12-04T10:40:28;8.88;;;5.30;;
54171;SDS011;40076;52.354;4.970;2023-12-04T10:43:10;9.55;;;5.88;;
54171;SDS011;40076;52.354;4.970;2023-12-04T10:45:47;9.18;;;5.25;;
54171;SDS011;40076;52.354;4.970;2023-12-04T10:48:14;10.20;;;5.35;;
54171;SDS011;40076;52.354;4.970;2023-12-04T10:50:41;8.68;;;5.38;;
54171;SDS011;40076;52.354;4.970;2023-12-04T10:53:10;7.82;;;5.35;;
54171;SDS011;40076;52.354;4.970;2023-12-04T10:55:37;9.20;;;5.50;;
54171;SDS011;40076;52.354;4.970;2023-12-04T10:58:08;8.55;;;5.60;;
54171;SDS011;40076;52.354;4.970;2023-12-04T11:00:35;8.80;;;5.57;;
54171;SDS011;40076;52.354;4.970;2023-12-04T11:03:12;9.40;;;5.20;;
54171;SDS011;40076;52.354;4.970;2023-12-04T11:05:42;9.20;;;5.50;;
54171;SDS011;40076;52.354;4.970;2023-12-04T11:08:11;8.32;;;5.57;;
54171;SDS011;40076;52.354;4.970;2023-12-04T11:10:50;9.40;;;5.45;;
54171;SDS011;40076;52.354;4.970;2023-12-04T11:13:24;9.32;;;5.40;;
54171;SDS011;40076;52.354;4.970;2023-12-04T11:15:59;9.60;;;5.57;;
54171;SDS011;40076;52.354;4.970;2023-12-04T11:18:44;7.95;;;5.20;;
54171;SDS011;40076;52.354;4.970;2023-12-04T11:21:16;6.75;;;4.00;;
54171;SDS011;40076;52.354;4.970;2023-12-04T11:23:44;9.75;;;5.57;;
54171;SDS011;40076;52.354;4.970;2023-12-04T11:26:10;8.38;;;5.20;;
54171;SDS011;40076;52.354;4.970;2023-12-04T11:28:36;10.13;;;5.65;;
54171;SDS011;40076;52.354;4.970;2023-12-04T11:31:05;9.68;;;5.95;;
54171;SDS011;40076;52.354;4.970;2023-12-04T11:33:35;11.18;;;5.72;;
54171;SDS011;40076;52.354;4.970;2023-12-04T11:36:11;11.25;;;5.97;;
54171;SDS011;40076;52.354;4.970;2023-12-04T11:38:38;9.32;;;5.78;;
54171;SDS011;40076;52.354;4.970;2023-12-04T11:41:19;9.18;;;5.80;;
54171;SDS011;40076;52.354;4.970;2023-12-04T11:43:45;11.55;;;6.07;;
54171;SDS011;40076;52.354;4.970;2023-12-04T11:46:21;9.48;;;5.90;;
54171;SDS011;40076;52.354;4.970;2023-12-04T11:48:48;8.95;;;5.57;;
54171;SDS011;40076;52.354;4.970;2023-12-04T11:51:15;9.90;;;5.68;;
54171;SDS011;40076;52.354;4.970;2023-12-04T11:54:00;9.10;;;5.80;;
54171;SDS011;40076;52.354;4.970;2023-12-04T11:56:29;9.57;;;6.30;;
54171;SDS011;40076;52.354;4.970;2023-12-04T11:58:54;10.63;;;6.20;;
54171;SDS011;40076;52.354;4.970;2023-12-04T12:01:28;10.88;;;6.47;;
54171;SDS011;40076;52.354;4.970;2023-12-04T12:03:57;11.68;;;6.57;;
54171;SDS011;40076;52.354;4.970;2023-12-04T12:06:23;12.60;;;6.82;;
54171;SDS011;40076;52.354;4.970;2023-12-04T12:08:49;10.27;;;6.55;;
54171;SDS011;40076;52.354;4.970;2023-12-04T12:11:15;12.35;;;6.55;;
54171;SDS011;40076;52.354;4.970;2023-12-04T12:13:41;11.18;;;6.70;;
54171;SDS011;40076;52.354;4.970;2023-12-04T12:16:06;11.20;;;6.82;;
54171;SDS011;40076;52.354;4.970;2023-12-04T12:18:34;10.43;;;5.75;;
54171;SDS011;40076;52.354;4.970;2023-12-04T12:21:00;9.95;;;6.38;;
54171;SDS011;40076;52.354;4.970;2023-12-04T12:23:25;11.65;;;6.63;;
54171;SDS011;40076;52.354;4.970;2023-12-04T12:25:53;12.00;;;7.15;;
54171;SDS011;40076;52.354;4.970;2023-12-04T12:28:19;12.02;;;7.35;;
54171;SDS011;40076;52.354;4.970;2023-12-04T12:30:44;11.32;;;7.38;;
54171;SDS011;40076;52.354;4.970;2023-12-04T12:33:12;11.40;;;7.25;;
54171;SDS011;40076;52.354;4.970;2023-12-04T12:35:39;12.57;;;7.30;;
54171;SDS011;40076;52.354;4.970;2023-12-04T12:38:04;13.95;;;7.28;;
54171;SDS011;40076;52.354;4.970;2023-12-04T12:40:29;12.70;;;7.75;;
54171;SDS011;40076;52.354;4.970;2023-12-04T12:43:05;13.15;;;7.50;;
54171;SDS011;40076;52.354;4.970;2023-12-04T12:45:38;13.38;;;7.28;;
54171;SDS011;40076;52.354;4.970;2023-12-04T12:48:04;12.02;;;7.65;;
54171;SDS011;40076;52.354;4.970;2023-12-04T12:50:31;12.77;;;7.75;;
54171;SDS011;40076;52.354;4.970;2023-12-04T12:52:56;13.63;;;8.10;;
54171;SDS011;40076;52.354;4.970;2023-12-04T12:55:23;13.45;;;7.88;;
54171;SDS011;40076;52.354;4.970;2023-12-04T12:57:49;13.07;;;7.53;;
54171;SDS011;40076;52.354;4.970;2023-12-04T13:00:14;12.18;;;8.02;;
54171;SDS011;40076;52.354;4.970;2023-12-04T13:02:40;13.60;;;8.07;;
54171;SDS011;40076;52.354;4.970;2023-12-04T13:05:05;12.93;;;8.05;;
54171;SDS011;40076;52.354;4.970;2023-12-04T13:07:32;13.02;;;7.60;;
54171;SDS011;40076;52.354;4.970;2023-12-04T13:09:57;13.45;;;8.43;;
54171;SDS011;40076;52.354;4.970;2023-12-04T13:12:23;13.75;;;8.02;;
54171;SDS011;40076;52.354;4.970;2023-12-04T13:14:49;19.15;;;8.75;;
54171;SDS011;40076;52.354;4.970;2023-12-04T13:17:14;13.18;;;7.93;;
54171;SDS011;40076;52.354;4.970;2023-12-04T13:19:39;13.00;;;7.53;;
54171;SDS011;40076;52.354;4.970;2023-12-04T13:22:04;11.02;;;7.15;;
54171;SDS011;40076;52.354;4.970;2023-12-04T13:24:30;12.68;;;8.32;;
54171;SDS011;40076;52.354;4.970;2023-12-04T13:26:55;14.93;;;8.95;;
54171;SDS011;40076;52.354;4.970;2023-12-04T13:29:20;16.55;;;8.80;;
54171;SDS011;40076;52.354;4.970;2023-12-04T13:31:46;14.57;;;8.57;;
54171;SDS011;40076;52.354;4.970;2023-12-04T13:34:14;15.13;;;8.80;;
54171;SDS011;40076;52.354;4.970;2023-12-04T13:36:40;15.18;;;8.80;;
54171;SDS011;40076;52.354;4.970;2023-12-04T13:39:06;14.00;;;8.98;;
54171;SDS011;40076;52.354;4.970;2023-12-04T13:41:41;13.93;;;9.00;;
54171;SDS011;40076;52.354;4.970;2023-12-04T13:44:25;13.05;;;8.05;;
54171;SDS011;40076;52.354;4.970;2023-12-04T13:46:50;13.95;;;8.77;;
54171;SDS011;40076;52.354;4.970;2023-12-04T13:49:16;13.55;;;8.75;;
54171;SDS011;40076;52.354;4.970;2023-12-04T13:51:44;15.30;;;9.70;;
54171;SDS011;40076;52.354;4.970;2023-12-04T13:54:10;13.05;;;8.90;;
54171;SDS011;40076;52.354;4.970;2023-12-04T13:56:45;14.07;;;8.35;;
54171;SDS011;40076;52.354;4.970;2023-12-04T13:59:19;14.73;;;8.25;;
54171;SDS011;40076;52.354;4.970;2023-12-04T14:01:49;13.95;;;8.75;;
54171;SDS011;40076;52.354;4.970;2023-12-04T14:04:21;10.75;;;7.15;;
54171;SDS011;40076;52.354;4.970;2023-12-04T14:06:48;16.02;;;9.52;;
54171;SDS011;40076;52.354;4.970;2023-12-04T14:09:14;14.52;;;9.35;;
54171;SDS011;40076;52.354;4.970;2023-12-04T14:11:41;15.30;;;9.45;;
54171;SDS011;40076;52.354;4.970;2023-12-04T14:14:08;16.83;;;8.65;;
54171;SDS011;40076;52.354;4.970;2023-12-04T14:16:34;16.25;;;9.93;;
54171;SDS011;40076;52.354;4.970;2023-12-04T14:18:59;16.13;;;9.63;;
54171;SDS011;40076;52.354;4.970;2023-12-04T14:21:25;14.10;;;9.20;;
54171;SDS011;40076;52.354;4.970;2023-12-04T14:23:50;16.70;;;9.35;;